createdAt,value
2018-08-29T00:00:14.033Z,16.78
2018-08-29T00:01:14.030Z,16.75
2018-08-29T00:02:14.026Z,16.66
2018-08-29T00:03:14.023Z,16.57
2018-08-29T00:04:14.016Z,16.67
2018-08-29T00:05:14.011Z,16.65
2018-08-29T00:06:14.008Z,16.63
2018-08-29T00:07:14.005Z,16.60
2018-08-29T00:08:14.007Z,16.52
2018-08-29T00:09:14.001Z,16.52
2018-08-29T00:10:13.994Z,16.54
2018-08-29T00:11:13.991Z,16.45
2018-08-29T00:12:13.993Z,16.48
2018-08-29T00:13:13.988Z,16.45
2018-08-29T00:14:13.986Z,16.50
2018-08-29T00:15:13.982Z,16.42
2018-08-29T00:16:13.974Z,16.50
2018-08-29T00:17:13.973Z,16.52
2018-08-29T00:18:13.967Z,16.51
2018-08-29T00:19:13.965Z,16.51
2018-08-29T00:20:13.966Z,16.55
2018-08-29T00:21:13.963Z,16.59
2018-08-29T00:22:13.959Z,16.59
2018-08-29T00:23:13.955Z,16.60
2018-08-29T00:24:13.948Z,16.57
2018-08-29T00:25:13.943Z,16.66
2018-08-29T00:26:13.943Z,16.63
2018-08-29T00:27:13.945Z,16.77
2018-08-29T00:28:13.943Z,16.73
2018-08-29T00:29:13.933Z,16.80
2018-08-29T00:30:13.927Z,16.78
2018-08-29T00:31:13.923Z,16.73
2018-08-29T00:32:13.925Z,16.75
2018-08-29T00:33:13.929Z,16.81
2018-08-29T00:34:13.918Z,16.72
2018-08-29T00:35:13.915Z,16.75
2018-08-29T00:36:13.907Z,16.75
2018-08-29T00:37:13.903Z,16.81
2018-08-29T00:38:13.900Z,16.70
2018-08-29T00:39:13.896Z,16.63
2018-08-29T00:40:13.897Z,16.63
2018-08-29T00:41:13.895Z,16.54
2018-08-29T00:42:13.887Z,16.52
2018-08-29T00:43:13.882Z,16.47
2018-08-29T00:44:13.884Z,16.44
2018-08-29T00:45:13.879Z,16.41
2018-08-29T00:46:13.877Z,16.34
2018-08-29T00:47:13.875Z,16.36
2018-08-29T00:48:13.864Z,16.40
2018-08-29T00:49:13.861Z,16.36
2018-08-29T00:50:13.858Z,16.36
2018-08-29T00:51:13.854Z,16.34
2018-08-29T00:52:13.854Z,16.36
2018-08-29T00:53:13.851Z,16.33
2018-08-29T00:54:13.849Z,16.34
2018-08-29T00:55:13.848Z,16.30
2018-08-29T00:56:13.836Z,16.25
2018-08-29T00:57:13.833Z,16.29
2018-08-29T00:58:13.835Z,16.27
2018-08-29T00:59:13.830Z,16.29
2018-08-29T01:00:13.828Z,16.27
2018-08-29T01:01:13.819Z,16.29
2018-08-29T01:02:13.816Z,16.32
2018-08-29T01:03:13.812Z,16.25
2018-08-29T01:04:13.813Z,16.22
2018-08-29T01:05:13.809Z,16.17
2018-08-29T01:06:13.804Z,16.16
2018-08-29T01:07:13.801Z,16.06
2018-08-29T01:08:13.794Z,16.06
2018-08-29T01:09:13.789Z,16.07
2018-08-29T01:10:13.786Z,15.99
2018-08-29T01:11:13.783Z,16.06
2018-08-29T01:12:13.784Z,16.06
2018-08-29T01:13:13.779Z,15.96
2018-08-29T01:14:13.771Z,15.98
2018-08-29T01:15:13.768Z,15.99
2018-08-29T01:16:13.771Z,16.03
2018-08-29T01:17:13.765Z,16.01
2018-08-29T01:18:13.762Z,15.93
2018-08-29T01:19:13.757Z,15.93
2018-08-29T01:20:13.749Z,15.91
2018-08-29T01:21:13.746Z,15.89
2018-08-29T01:22:13.741Z,15.92
2018-08-29T01:23:13.738Z,15.98
2018-08-29T01:24:13.739Z,15.98
2018-08-29T01:25:13.734Z,15.96
2018-08-29T01:26:13.732Z,15.93
2018-08-29T01:27:13.729Z,15.85
2018-08-29T01:28:13.721Z,15.95
2018-08-29T01:29:13.715Z,15.85
2018-08-29T01:30:13.719Z,15.89
2018-08-29T01:31:13.714Z,15.93
2018-08-29T01:32:13.705Z,15.93
2018-08-29T01:33:13.701Z,16.13
2018-08-29T01:34:13.716Z,16.11
2018-08-29T01:35:13.693Z,16.23
2018-08-29T01:36:13.694Z,16.36
2018-08-29T01:37:13.689Z,16.45
2018-08-29T01:38:13.686Z,16.42
2018-08-29T01:39:13.682Z,16.51
2018-08-29T01:40:13.674Z,16.54
2018-08-29T01:41:13.671Z,16.59
2018-08-29T01:42:13.666Z,16.63
2018-08-29T01:43:13.663Z,16.65
2018-08-29T01:44:13.666Z,16.67
2018-08-29T01:45:13.660Z,16.65
2018-08-29T01:46:13.651Z,16.69
2018-08-29T01:47:13.647Z,16.66
2018-08-29T01:48:13.650Z,16.65
2018-08-29T01:49:13.645Z,16.65
2018-08-29T01:50:13.642Z,16.62
2018-08-29T01:51:13.642Z,16.60
2018-08-29T01:52:13.630Z,16.54
2018-08-29T01:53:13.625Z,16.51
2018-08-29T01:54:13.621Z,16.48
2018-08-29T01:55:13.618Z,16.40
2018-08-29T01:56:13.621Z,16.34
2018-08-29T01:57:13.616Z,16.27
2018-08-29T01:58:13.611Z,16.32
2018-08-29T01:59:13.607Z,16.27
2018-08-29T02:00:13.600Z,16.18
2018-08-29T02:01:13.596Z,16.13
2018-08-29T02:02:13.595Z,16.10
2018-08-29T02:03:13.595Z,16.03
2018-08-29T02:04:13.584Z,15.95
2018-08-29T02:05:13.581Z,15.96
2018-08-29T02:06:13.577Z,15.96
2018-08-29T02:07:13.573Z,15.89
2018-08-29T02:08:13.576Z,15.80
2018-08-29T02:09:13.569Z,15.80
2018-08-29T02:10:13.566Z,15.71
2018-08-29T02:11:13.563Z,15.62
2018-08-29T02:12:13.554Z,15.70
2018-08-29T02:13:13.550Z,15.62
2018-08-29T02:14:13.548Z,15.64
2018-08-29T02:15:13.543Z,15.55
2018-08-29T02:16:13.543Z,15.55
2018-08-29T02:17:13.537Z,15.53
2018-08-29T02:18:13.530Z,15.46
2018-08-29T02:19:13.526Z,15.44
2018-08-29T02:20:13.527Z,15.46
2018-08-29T02:21:13.522Z,15.35
2018-08-29T02:22:13.518Z,15.46
2018-08-29T02:23:13.517Z,15.41
2018-08-29T02:24:13.508Z,15.41
2018-08-29T02:25:13.506Z,15.49
2018-08-29T02:26:13.499Z,15.44
2018-08-29T02:27:13.495Z,15.43
2018-08-29T02:28:13.495Z,15.49
2018-08-29T02:29:13.494Z,15.59
2018-08-29T02:30:13.486Z,15.56
2018-08-29T02:31:13.483Z,15.66
2018-08-29T02:32:13.474Z,15.71
2018-08-29T02:33:13.471Z,15.71
2018-08-29T02:34:13.471Z,15.71
2018-08-29T02:35:13.467Z,15.76
2018-08-29T02:36:13.458Z,15.84
2018-08-29T02:37:13.453Z,15.78
2018-08-29T02:38:13.450Z,15.81
2018-08-29T02:39:13.445Z,15.86
2018-08-29T02:40:13.450Z,15.96
2018-08-29T02:41:13.443Z,15.95
2018-08-29T02:42:13.438Z,15.96
2018-08-29T02:43:13.435Z,15.85
2018-08-29T02:44:13.427Z,15.81
2018-08-29T02:45:13.425Z,15.89
2018-08-29T02:46:13.417Z,15.84
2018-08-29T02:47:13.413Z,15.86
2018-08-29T02:48:13.417Z,15.84
2018-08-29T02:49:13.459Z,15.78
2018-08-29T02:50:13.402Z,15.95
2018-08-29T02:51:13.398Z,15.80
2018-08-29T02:52:13.398Z,15.86
2018-08-29T02:53:13.393Z,15.89
2018-08-29T02:54:13.391Z,15.86
2018-08-29T02:55:13.387Z,15.77
2018-08-29T02:56:13.377Z,15.85
2018-08-29T02:57:13.373Z,15.71
2018-08-29T02:58:13.371Z,15.74
2018-08-29T02:59:13.365Z,15.71
2018-08-29T03:00:13.366Z,15.68
2018-08-29T03:01:13.362Z,15.67
2018-08-29T03:02:13.362Z,15.56
2018-08-29T03:03:13.354Z,15.60
2018-08-29T03:04:13.347Z,15.55
2018-08-29T03:05:13.342Z,15.53
2018-08-29T03:06:13.341Z,15.43
2018-08-29T03:07:13.339Z,15.49
2018-08-29T03:08:13.329Z,15.38
2018-08-29T03:09:13.326Z,15.33
2018-08-29T03:10:13.321Z,15.41
2018-08-29T03:11:13.317Z,15.28
2018-08-29T03:12:13.318Z,15.25
2018-08-29T03:13:13.319Z,15.16
2018-08-29T03:14:13.313Z,15.23
2018-08-29T03:15:13.305Z,15.15
2018-08-29T03:16:13.296Z,15.11
2018-08-29T03:17:13.293Z,15.16
2018-08-29T03:18:13.289Z,15.04
2018-08-29T03:19:13.283Z,15.05
2018-08-29T03:20:13.285Z,15.03
2018-08-29T03:21:13.280Z,14.94
2018-08-29T03:22:13.272Z,14.90
2018-08-29T03:23:13.266Z,14.94
2018-08-29T03:24:13.268Z,14.87
2018-08-29T03:25:13.263Z,14.87
2018-08-29T03:26:13.313Z,14.80
2018-08-29T03:27:13.254Z,14.79
2018-08-29T03:28:13.246Z,14.78
2018-08-29T03:29:13.240Z,14.78
2018-08-29T03:30:13.237Z,14.74
2018-08-29T03:31:13.235Z,14.75
2018-08-29T03:32:13.232Z,14.66
2018-08-29T03:33:13.228Z,14.59
2018-08-29T03:34:13.223Z,14.71
2018-08-29T03:35:13.223Z,14.72
2018-08-29T03:36:13.211Z,14.61
2018-08-29T03:37:13.206Z,14.53
2018-08-29T03:38:13.273Z,14.60
2018-08-29T03:39:13.207Z,14.61
2018-08-29T03:40:13.193Z,14.53
2018-08-29T03:41:13.189Z,14.56
2018-08-29T03:42:13.187Z,14.60
2018-08-29T03:43:13.183Z,14.60
2018-08-29T03:44:13.184Z,14.54
2018-08-29T03:45:13.175Z,14.52
2018-08-29T03:46:13.172Z,14.53
2018-08-29T03:47:13.165Z,14.46
2018-08-29T03:48:13.158Z,14.46
2018-08-29T03:49:13.152Z,14.46
2018-08-29T03:50:13.148Z,14.45
2018-08-29T03:51:13.143Z,14.48
2018-08-29T03:52:13.143Z,14.36
2018-08-29T03:53:13.140Z,14.35
2018-08-29T03:54:13.199Z,14.30
2018-08-29T03:55:13.125Z,14.34
2018-08-29T03:56:13.127Z,14.31
2018-08-29T03:57:13.121Z,14.29
2018-08-29T03:58:13.115Z,14.30
2018-08-29T03:59:13.114Z,14.30
2018-08-29T04:00:13.103Z,14.34
2018-08-29T04:01:13.098Z,14.30
2018-08-29T04:02:13.094Z,14.20
2018-08-29T04:03:13.089Z,14.23
2018-08-29T04:04:13.090Z,14.23
2018-08-29T04:05:13.083Z,14.21
2018-08-29T04:06:13.079Z,14.21
2018-08-29T04:07:13.076Z,14.16
2018-08-29T04:08:13.068Z,14.13
2018-08-29T04:09:13.193Z,14.11
2018-08-29T04:10:13.062Z,14.13
2018-08-29T04:11:13.057Z,14.17
2018-08-29T04:12:13.048Z,14.17
2018-08-29T04:13:13.041Z,14.23
2018-08-29T04:14:13.037Z,14.23
2018-08-29T04:15:13.033Z,14.17
2018-08-29T04:16:13.033Z,14.23
2018-08-29T04:17:13.028Z,14.16
2018-08-29T04:18:13.023Z,14.27
2018-08-29T04:19:13.018Z,14.19
2018-08-29T04:20:13.019Z,14.23
2018-08-29T04:21:13.004Z,14.21
2018-08-29T04:22:13.000Z,14.17
2018-08-29T04:23:12.995Z,14.11
2018-08-29T04:24:12.998Z,14.21
2018-08-29T04:25:12.991Z,14.13
2018-08-29T04:26:12.982Z,14.17
2018-08-29T04:27:12.977Z,14.12
2018-08-29T04:28:12.978Z,14.16
2018-08-29T04:29:12.972Z,14.17
2018-08-29T04:30:12.966Z,14.11
2018-08-29T04:31:12.961Z,14.21
2018-08-29T04:32:12.958Z,14.16
2018-08-29T04:33:12.948Z,14.20
2018-08-29T04:34:12.943Z,14.12
2018-08-29T04:35:12.940Z,14.12
2018-08-29T04:36:13.052Z,14.16
2018-08-29T04:37:12.935Z,14.12
2018-08-29T04:38:12.930Z,14.11
2018-08-29T04:39:12.923Z,14.11
2018-08-29T04:40:12.919Z,14.11
2018-08-29T04:41:12.909Z,14.05
2018-08-29T04:42:12.910Z,14.05
2018-08-29T04:43:12.906Z,13.99
2018-08-29T04:44:12.897Z,14.09
2018-08-29T04:45:12.891Z,14.09
2018-08-29T04:46:12.892Z,14.05
2018-08-29T04:47:12.882Z,14.12
2018-08-29T04:48:12.880Z,14.09
2018-08-29T04:49:12.881Z,13.99
2018-08-29T04:50:12.870Z,14.04
2018-08-29T04:51:12.866Z,14.08
2018-08-29T04:52:12.858Z,14.09
2018-08-29T04:53:12.856Z,14.08
2018-08-29T04:54:12.849Z,14.11
2018-08-29T04:55:12.845Z,14.12
2018-08-29T04:56:12.842Z,14.12
2018-08-29T04:57:12.838Z,14.13
2018-08-29T04:58:12.829Z,14.21
2018-08-29T04:59:12.823Z,14.24
2018-08-29T05:00:12.825Z,14.16
2018-08-29T05:01:12.819Z,14.24
2018-08-29T05:02:12.813Z,14.17
2018-08-29T05:03:12.811Z,14.13
2018-08-29T05:04:12.865Z,14.23
2018-08-29T05:05:12.794Z,14.19
2018-08-29T05:06:12.789Z,14.24
2018-08-29T05:07:12.787Z,14.29
2018-08-29T05:08:12.786Z,14.34
2018-08-29T05:09:12.780Z,14.36
2018-08-29T05:10:12.775Z,14.42
2018-08-29T05:11:12.770Z,14.38
2018-08-29T05:12:12.762Z,14.45
2018-08-29T05:13:12.756Z,14.45
2018-08-29T05:14:12.757Z,14.63
2018-08-29T05:15:12.751Z,14.79
2018-08-29T05:16:12.743Z,15.16
2018-08-29T05:17:12.737Z,15.43
2018-08-29T05:18:12.733Z,15.66
2018-08-29T05:19:12.730Z,15.77
2018-08-29T05:20:12.730Z,16.11
2018-08-29T05:21:12.727Z,16.34
2018-08-29T05:22:12.720Z,16.73
2018-08-29T05:23:12.718Z,17.00
2018-08-29T05:24:12.708Z,17.33
2018-08-29T05:25:12.704Z,17.57
2018-08-29T05:26:12.700Z,17.99
2018-08-29T05:27:12.711Z,18.29
2018-08-29T05:28:12.698Z,18.68
2018-08-29T05:29:12.693Z,19.01
2018-08-29T05:30:12.686Z,19.24
2018-08-29T05:31:12.689Z,19.55
2018-08-29T05:32:12.685Z,19.82
2018-08-29T05:33:12.681Z,20.08
2018-08-29T05:34:12.680Z,20.34
2018-08-29T05:35:12.684Z,20.68
2018-08-29T05:36:12.670Z,21.01
2018-08-29T05:37:12.667Z,21.38
2018-08-29T05:38:12.666Z,21.53
2018-08-29T05:39:12.664Z,21.91
2018-08-29T05:40:12.669Z,22.14
2018-08-29T05:41:12.665Z,22.41
2018-08-29T05:42:12.663Z,22.56
2018-08-29T05:43:12.663Z,22.84
2018-08-29T05:44:12.657Z,23.11
2018-08-29T05:45:12.654Z,23.39
2018-08-29T05:46:12.659Z,23.50
2018-08-29T05:47:12.672Z,23.74
2018-08-29T05:48:12.779Z,23.86
2018-08-29T05:49:12.653Z,24.05
2018-08-29T05:50:12.654Z,24.21
2018-08-29T05:51:12.654Z,24.45
2018-08-29T05:52:12.666Z,24.75
2018-08-29T05:53:12.658Z,24.68
2018-08-29T05:54:12.659Z,24.71
2018-08-29T05:55:12.666Z,24.77
2018-08-29T05:56:12.657Z,24.74
2018-08-29T05:57:12.657Z,24.66
2018-08-29T05:58:12.658Z,24.70
2018-08-29T05:59:12.659Z,24.75
2018-08-29T06:00:12.666Z,24.75
2018-08-29T06:01:12.666Z,24.82
2018-08-29T06:02:12.662Z,24.99
2018-08-29T06:03:12.666Z,25.02
2018-08-29T06:04:12.669Z,25.07
2018-08-29T06:05:12.671Z,25.01
2018-08-29T06:06:12.674Z,24.87
2018-08-29T06:07:12.676Z,25.04
2018-08-29T06:08:12.672Z,25.17
2018-08-29T06:09:12.673Z,25.38
2018-08-29T06:10:12.794Z,25.56
2018-08-29T06:11:12.678Z,25.85
2018-08-29T06:12:12.683Z,26.19
2018-08-29T06:13:12.685Z,26.38
2018-08-29T06:14:12.689Z,26.60
2018-08-29T06:15:12.691Z,26.81
2018-08-29T06:16:12.688Z,27.06
2018-08-29T06:17:12.692Z,27.25
2018-08-29T06:18:12.697Z,27.50
2018-08-29T06:19:12.701Z,27.05
2018-08-29T06:20:12.699Z,27.03
2018-08-29T06:21:12.700Z,26.20
2018-08-29T06:22:12.704Z,25.82
2018-08-29T06:23:12.708Z,26.59
2018-08-29T06:24:12.715Z,26.44
2018-08-29T06:25:12.718Z,25.98
2018-08-29T06:26:12.721Z,26.04
2018-08-29T06:27:12.726Z,26.00
2018-08-29T06:28:12.725Z,25.94
2018-08-29T06:29:12.728Z,26.16
2018-08-29T06:30:12.733Z,26.31
2018-08-29T06:31:12.738Z,26.66
2018-08-29T06:32:12.747Z,27.09
2018-08-29T06:33:12.750Z,27.30
2018-08-29T06:34:12.750Z,26.81
2018-08-29T06:35:12.759Z,26.61
2018-08-29T06:36:12.765Z,26.83
2018-08-29T06:37:12.767Z,27.34
2018-08-29T06:38:12.784Z,27.78
2018-08-29T06:39:12.777Z,27.28
2018-08-29T06:40:12.778Z,27.43
2018-08-29T06:41:12.783Z,27.83
2018-08-29T06:42:12.788Z,28.13
2018-08-29T06:43:12.795Z,27.15
2018-08-29T06:44:12.805Z,27.84
2018-08-29T06:45:12.809Z,27.80
2018-08-29T06:46:12.819Z,27.46
2018-08-29T06:47:12.822Z,26.51
2018-08-29T06:48:12.822Z,25.72
2018-08-29T06:49:12.828Z,25.35
2018-08-29T06:50:12.847Z,25.19
2018-08-29T06:51:12.845Z,23.97
2018-08-29T06:52:12.847Z,23.14
2018-08-29T06:53:12.851Z,22.61
2018-08-29T06:54:12.855Z,22.36
2018-08-29T06:55:12.861Z,22.60
2018-08-29T06:56:12.876Z,22.81
2018-08-29T06:57:12.876Z,22.63
2018-08-29T06:58:12.879Z,22.97
2018-08-29T06:59:12.892Z,23.41
2018-08-29T07:00:12.886Z,23.68
2018-08-29T07:01:12.889Z,24.87
2018-08-29T07:02:12.893Z,25.59
2018-08-29T07:03:12.899Z,26.46
2018-08-29T07:04:12.907Z,27.24
2018-08-29T07:05:12.910Z,28.15
2018-08-29T07:06:12.910Z,28.51
2018-08-29T07:07:12.917Z,29.35
2018-08-29T07:08:12.926Z,29.88
2018-08-29T07:09:12.994Z,30.21
2018-08-29T07:10:12.938Z,30.70
2018-08-29T07:11:12.940Z,31.32
2018-08-29T07:12:12.942Z,31.69
2018-08-29T07:13:12.947Z,32.03
2018-08-29T07:14:12.954Z,32.41
2018-08-29T07:15:12.963Z,32.36
2018-08-29T07:16:13.031Z,32.73
2018-08-29T07:17:12.977Z,33.18
2018-08-29T07:18:12.983Z,32.95
2018-08-29T07:19:12.990Z,33.28
2018-08-29T07:20:12.993Z,33.86
2018-08-29T07:21:13.000Z,34.19
2018-08-29T07:22:13.013Z,34.46
2018-08-29T07:23:13.253Z,34.60
2018-08-29T07:24:13.028Z,34.26
2018-08-29T07:25:13.032Z,34.00
2018-08-29T07:26:13.041Z,34.05
2018-08-29T07:27:13.050Z,33.43
2018-08-29T07:28:13.063Z,32.87
2018-08-29T07:29:13.123Z,33.14
2018-08-29T07:30:13.080Z,33.17
2018-08-29T07:31:13.090Z,33.17
2018-08-29T07:32:13.094Z,33.70
2018-08-29T07:33:13.103Z,33.29
2018-08-29T07:34:13.112Z,32.77
2018-08-29T07:35:13.122Z,32.62
2018-08-29T07:36:13.269Z,32.10
2018-08-29T07:37:13.145Z,31.72
2018-08-29T07:38:13.150Z,32.09
2018-08-29T07:39:13.161Z,32.07
2018-08-29T07:40:13.173Z,32.32
2018-08-29T07:41:13.183Z,32.88
2018-08-29T07:42:13.218Z,33.05
2018-08-29T07:43:13.204Z,33.33
2018-08-29T07:44:13.210Z,33.20
2018-08-29T07:45:13.220Z,32.71
2018-08-29T07:46:13.229Z,33.45
2018-08-29T07:47:13.239Z,33.40
2018-08-29T07:48:13.279Z,32.84
2018-08-29T07:49:13.265Z,32.83
2018-08-29T07:50:13.285Z,32.68
2018-08-29T07:51:13.285Z,32.06
2018-08-29T07:52:13.291Z,32.59
2018-08-29T07:53:13.302Z,32.27
2018-08-29T07:54:13.316Z,31.79
2018-08-29T07:55:13.331Z,31.60
2018-08-29T07:56:13.337Z,31.88
2018-08-29T07:57:13.344Z,31.82
2018-08-29T07:58:13.355Z,32.07
2018-08-29T07:59:13.366Z,31.99
2018-08-29T08:00:13.382Z,31.97
2018-08-29T08:01:13.423Z,30.90
2018-08-29T08:02:13.403Z,31.35
2018-08-29T08:03:13.524Z,31.59
2018-08-29T08:04:13.420Z,31.94
2018-08-29T08:05:13.432Z,32.44
2018-08-29T08:06:13.442Z,32.73
2018-08-29T08:07:13.457Z,32.72
2018-08-29T08:08:13.679Z,32.93
2018-08-29T08:09:13.496Z,33.62
2018-08-29T08:10:13.489Z,33.65
2018-08-29T08:11:13.496Z,33.81
2018-08-29T08:12:13.514Z,33.93
2018-08-29T08:13:13.522Z,34.08
2018-08-29T08:14:13.534Z,33.43
2018-08-29T08:15:13.547Z,33.34
2018-08-29T08:16:13.552Z,32.98
2018-08-29T08:17:13.567Z,32.84
2018-08-29T08:18:13.573Z,33.38
2018-08-29T08:19:13.586Z,33.52
2018-08-29T08:20:13.601Z,33.63
2018-08-29T08:21:13.713Z,34.01
2018-08-29T08:22:13.624Z,34.28
2018-08-29T08:23:13.634Z,34.64
2018-08-29T08:24:13.642Z,35.10
2018-08-29T08:25:13.652Z,35.42
2018-08-29T08:26:13.670Z,35.84
2018-08-29T08:27:13.682Z,35.83
2018-08-29T08:28:13.690Z,36.27
2018-08-29T08:29:13.803Z,36.64
2018-08-29T08:30:13.711Z,36.22
2018-08-29T08:31:13.724Z,36.52
2018-08-29T08:32:13.739Z,37.05
2018-08-29T08:33:13.751Z,36.97
2018-08-29T08:34:13.764Z,37.23
2018-08-29T08:35:13.776Z,36.02
2018-08-29T08:36:13.784Z,35.43
2018-08-29T08:37:13.796Z,34.58
2018-08-29T08:38:13.808Z,34.87
2018-08-29T08:39:13.821Z,35.17
2018-08-29T08:40:13.839Z,34.95
2018-08-29T08:41:13.851Z,35.07
2018-08-29T08:42:13.860Z,35.46
2018-08-29T08:43:13.872Z,35.24
2018-08-29T08:44:13.890Z,35.54
2018-08-29T08:45:13.900Z,35.91
2018-08-29T08:46:13.913Z,36.40
2018-08-29T08:47:13.925Z,36.78
2018-08-29T08:48:14.054Z,35.31
2018-08-29T08:49:14.431Z,35.00
2018-08-29T08:50:13.964Z,35.28
2018-08-29T08:51:13.974Z,35.64
2018-08-29T08:52:13.990Z,35.64
2018-08-29T08:53:14.004Z,35.56
2018-08-29T08:54:14.018Z,36.27
2018-08-29T08:55:14.030Z,35.62
2018-08-29T08:56:14.040Z,35.95
2018-08-29T08:57:14.054Z,36.00
2018-08-29T08:58:14.073Z,36.27
2018-08-29T08:59:14.144Z,35.29
2018-08-29T09:00:14.097Z,35.40
2018-08-29T09:01:14.110Z,35.46
2018-08-29T09:02:14.125Z,36.33
2018-08-29T09:03:14.144Z,36.94
2018-08-29T09:04:14.158Z,36.84
2018-08-29T09:05:14.171Z,36.64
2018-08-29T09:06:14.244Z,37.08
2018-08-29T09:07:14.202Z,36.38
2018-08-29T09:08:14.212Z,35.62
2018-08-29T09:09:14.225Z,36.77
2018-08-29T09:10:14.241Z,36.84
2018-08-29T09:11:14.256Z,37.65
2018-08-29T09:12:14.277Z,38.34
2018-08-29T09:13:14.290Z,38.63
2018-08-29T09:14:14.329Z,37.59
2018-08-29T09:15:14.316Z,36.96
2018-08-29T09:16:14.336Z,37.06
2018-08-29T09:17:14.351Z,36.68
2018-08-29T09:18:14.365Z,37.12
2018-08-29T09:19:14.380Z,37.39
2018-08-29T09:20:14.390Z,36.90
2018-08-29T09:21:14.404Z,37.56
2018-08-29T09:22:14.420Z,37.38
2018-08-29T09:23:14.436Z,36.15
2018-08-29T09:24:14.519Z,35.52
2018-08-29T09:25:14.469Z,36.72
2018-08-29T09:26:14.485Z,37.13
2018-08-29T09:27:14.498Z,37.40
2018-08-29T09:28:14.510Z,37.59
2018-08-29T09:29:14.535Z,36.87
2018-08-29T09:30:14.542Z,37.42
2018-08-29T09:31:14.559Z,37.24
2018-08-29T09:32:14.570Z,36.94
2018-08-29T09:33:14.585Z,37.16
2018-08-29T09:34:14.600Z,37.21
2018-08-29T09:35:14.639Z,37.60
2018-08-29T09:36:14.637Z,35.61
2018-08-29T09:37:14.648Z,35.24
2018-08-29T09:38:14.749Z,35.47
2018-08-29T09:39:14.679Z,35.50
2018-08-29T09:40:14.690Z,34.72
2018-08-29T09:41:14.705Z,34.71
2018-08-29T09:42:14.719Z,35.47
2018-08-29T09:43:14.735Z,35.87
2018-08-29T09:44:14.755Z,35.66
2018-08-29T09:45:14.769Z,36.25
2018-08-29T09:46:14.783Z,36.57
2018-08-29T09:47:14.797Z,36.72
2018-08-29T09:48:14.868Z,36.23
2018-08-29T09:49:14.830Z,36.38
2018-08-29T09:50:14.876Z,37.33
2018-08-29T09:51:14.929Z,38.19
2018-08-29T09:52:14.872Z,38.38
2018-08-29T09:53:14.913Z,38.65
2018-08-29T09:54:14.902Z,38.55
2018-08-29T09:55:14.987Z,36.06
2018-08-29T09:56:14.940Z,36.97
2018-08-29T09:57:14.955Z,36.31
2018-08-29T09:58:14.969Z,35.50
2018-08-29T09:59:14.985Z,35.74
2018-08-29T10:00:14.997Z,36.46
2018-08-29T10:01:15.013Z,36.65
2018-08-29T10:02:15.034Z,37.38
2018-08-29T10:03:15.049Z,37.38
2018-08-29T10:04:15.081Z,37.47
2018-08-29T10:05:15.076Z,37.72
2018-08-29T10:06:15.093Z,37.97
2018-08-29T10:07:15.107Z,37.87
2018-08-29T10:08:15.129Z,36.67
2018-08-29T10:09:15.147Z,37.25
2018-08-29T10:10:15.208Z,37.88
2018-08-29T10:11:15.176Z,37.70
2018-08-29T10:12:15.186Z,36.49
2018-08-29T10:13:15.202Z,35.95
2018-08-29T10:14:15.220Z,36.86
2018-08-29T10:15:15.233Z,37.20
2018-08-29T10:16:15.253Z,36.19
2018-08-29T10:17:15.268Z,34.95
2018-08-29T10:18:15.279Z,34.95
2018-08-29T10:19:15.297Z,35.37
2018-08-29T10:20:15.316Z,34.83
2018-08-29T10:21:15.331Z,34.88
2018-08-29T10:22:15.348Z,34.37
2018-08-29T10:23:15.392Z,34.61
2018-08-29T10:24:15.372Z,34.80
2018-08-29T10:25:15.386Z,34.06
2018-08-29T10:26:15.402Z,33.96
2018-08-29T10:27:15.416Z,33.84
2018-08-29T10:28:15.436Z,33.44
2018-08-29T10:29:15.452Z,32.69
2018-08-29T10:30:15.465Z,32.36
2018-08-29T10:31:15.478Z,32.99
2018-08-29T10:32:15.485Z,33.41
2018-08-29T10:33:15.498Z,33.89
2018-08-29T10:34:15.518Z,34.86
2018-08-29T10:35:15.530Z,34.08
2018-08-29T10:36:15.554Z,33.44
2018-08-29T10:37:15.551Z,33.90
2018-08-29T10:38:15.565Z,33.21
2018-08-29T10:39:15.576Z,33.72
2018-08-29T10:40:15.643Z,32.39
2018-08-29T10:41:15.606Z,32.36
2018-08-29T10:42:15.617Z,32.62
2018-08-29T10:43:15.629Z,32.07
2018-08-29T10:44:15.639Z,31.56
2018-08-29T10:45:15.650Z,31.68
2018-08-29T10:46:15.664Z,32.07
2018-08-29T10:47:15.675Z,32.54
2018-08-29T10:48:15.692Z,32.40
2018-08-29T10:49:15.716Z,32.81
2018-08-29T10:50:15.709Z,32.99
2018-08-29T10:51:15.724Z,32.95
2018-08-29T10:52:15.739Z,33.03
2018-08-29T10:53:15.755Z,33.28
2018-08-29T10:54:15.759Z,33.74
2018-08-29T10:55:15.868Z,33.63
2018-08-29T10:56:15.780Z,33.49
2018-08-29T10:57:15.808Z,32.71
2018-08-29T10:58:15.803Z,33.11
2018-08-29T10:59:15.813Z,32.51
2018-08-29T11:00:15.832Z,33.35
2018-08-29T11:01:15.842Z,33.07
2018-08-29T11:02:15.853Z,33.77
2018-08-29T11:03:15.865Z,33.99
2018-08-29T11:04:15.874Z,33.74
2018-08-29T11:05:15.886Z,33.70
2018-08-29T11:06:15.902Z,33.90
2018-08-29T11:07:15.914Z,33.72
2018-08-29T11:08:15.926Z,33.43
2018-08-29T11:09:15.932Z,33.14
2018-08-29T11:10:15.946Z,34.15
2018-08-29T11:11:15.956Z,34.93
2018-08-29T11:12:15.973Z,34.99
2018-08-29T11:13:15.984Z,34.90
2018-08-29T11:14:16.000Z,34.49
2018-08-29T11:15:16.009Z,34.99
2018-08-29T11:16:16.081Z,34.53
2018-08-29T11:17:16.029Z,34.00
2018-08-29T11:18:16.042Z,34.33
2018-08-29T11:19:16.056Z,34.93
2018-08-29T11:20:16.073Z,35.15
2018-08-29T11:21:16.087Z,35.64
2018-08-29T11:22:16.117Z,35.93
2018-08-29T11:23:16.152Z,35.80
2018-08-29T11:24:16.124Z,35.25
2018-08-29T11:25:16.137Z,35.25
2018-08-29T11:26:16.148Z,34.95
2018-08-29T11:27:16.159Z,34.00
2018-08-29T11:28:16.306Z,32.58
2018-08-29T11:29:16.180Z,32.32
2018-08-29T11:30:16.193Z,32.53
2018-08-29T11:31:16.205Z,32.65
2018-08-29T11:32:16.221Z,32.81
2018-08-29T11:33:16.232Z,32.58
2018-08-29T11:34:16.241Z,32.54
2018-08-29T11:35:16.254Z,32.10
2018-08-29T11:36:16.261Z,31.54
2018-08-29T11:37:16.273Z,31.56
2018-08-29T11:38:16.284Z,31.68
2018-08-29T11:39:16.295Z,31.60
2018-08-29T11:40:16.300Z,31.54
2018-08-29T11:41:16.311Z,30.72
2018-08-29T11:42:16.396Z,30.30
2018-08-29T11:43:16.411Z,30.21
2018-08-29T11:44:16.345Z,30.13
2018-08-29T11:45:16.355Z,29.94
2018-08-29T11:46:16.360Z,30.07
2018-08-29T11:47:16.373Z,30.16
2018-08-29T11:48:16.373Z,29.78
2018-08-29T11:49:16.382Z,29.86
2018-08-29T11:50:16.390Z,29.91
2018-08-29T11:51:16.398Z,29.85
2018-08-29T11:52:16.411Z,29.95
2018-08-29T11:53:16.418Z,30.18
2018-08-29T11:54:16.420Z,30.04
2018-08-29T11:55:16.429Z,29.92
2018-08-29T11:56:16.443Z,29.99
2018-08-29T11:57:16.447Z,30.08
2018-08-29T11:58:16.454Z,30.22
2018-08-29T11:59:16.462Z,30.23
2018-08-29T12:00:16.464Z,30.11
2018-08-29T12:01:16.471Z,30.30
2018-08-29T12:02:16.478Z,30.51
2018-08-29T12:03:16.487Z,30.48
2018-08-29T12:04:16.497Z,30.42
2018-08-29T12:05:16.503Z,30.36
2018-08-29T12:06:16.508Z,30.32
2018-08-29T12:07:16.514Z,30.29
2018-08-29T12:08:16.517Z,30.21
2018-08-29T12:09:16.549Z,30.36
2018-08-29T12:10:16.534Z,30.32
2018-08-29T12:11:16.541Z,30.36
2018-08-29T12:12:16.542Z,30.37
2018-08-29T12:13:16.548Z,30.40
2018-08-29T12:14:16.556Z,30.25
2018-08-29T12:15:16.562Z,30.29
2018-08-29T12:16:16.573Z,30.25
2018-08-29T12:17:16.579Z,30.18
2018-08-29T12:18:16.585Z,30.28
2018-08-29T12:19:16.608Z,30.29
2018-08-29T12:20:16.683Z,30.21
2018-08-29T12:21:16.675Z,30.30
2018-08-29T12:22:16.608Z,30.40
2018-08-29T12:23:16.615Z,30.26
2018-08-29T12:24:16.620Z,29.73
2018-08-29T12:25:16.625Z,29.37
2018-08-29T12:26:16.716Z,28.80
2018-08-29T12:27:16.636Z,28.72
2018-08-29T12:28:16.645Z,28.91
2018-08-29T12:29:16.655Z,28.82
2018-08-29T12:30:16.656Z,28.65
2018-08-29T12:31:16.661Z,28.74
2018-08-29T12:32:16.663Z,28.62
2018-08-29T12:33:16.667Z,28.61
2018-08-29T12:34:16.674Z,28.38
2018-08-29T12:35:16.679Z,28.28
2018-08-29T12:36:16.693Z,28.54
2018-08-29T12:37:16.750Z,28.82
2018-08-29T12:38:16.703Z,28.87
2018-08-29T12:39:16.706Z,29.12
2018-08-29T12:40:16.707Z,29.35
2018-08-29T12:41:16.711Z,29.48
2018-08-29T12:42:16.722Z,29.67
2018-08-29T12:43:16.731Z,29.52
2018-08-29T12:44:16.728Z,29.52
2018-08-29T12:45:16.732Z,29.48
2018-08-29T12:46:16.738Z,29.45
2018-08-29T12:47:16.743Z,29.49
2018-08-29T12:48:16.754Z,29.36
2018-08-29T12:49:16.758Z,29.18
2018-08-29T12:50:16.880Z,28.92
2018-08-29T12:51:16.772Z,29.05
2018-08-29T12:52:16.769Z,29.11